createdAt,value
2022-12-25T00:00:38.480Z,1008
2022-12-25T00:01:41.457Z,1007.9
2022-12-25T00:02:45.188Z,1008
2022-12-25T00:03:49.510Z,1008
2022-12-25T00:04:53.896Z,1008
2022-12-25T00:05:57.430Z,1008
2022-12-25T00:07:01.644Z,1008
2022-12-25T00:08:03.897Z,1008
2022-12-25T00:09:06.992Z,1008.1
2022-12-25T00:10:11.001Z,1008.1
2022-12-25T00:11:14.558Z,1008
2022-12-25T00:12:18.856Z,1008.1
2022-12-25T00:13:22.479Z,1008.1
2022-12-25T00:14:25.204Z,1008.1
2022-12-25T00:15:29.120Z,1008.1
2022-12-25T00:16:32.939Z,1008.1
2022-12-25T00:17:36.999Z,1008.1
2022-12-25T00:18:40.553Z,1008.1
2022-12-25T00:19:43.627Z,1008.2
2022-12-25T00:20:47.019Z,1008.2
2022-12-25T00:21:50.110Z,1008.2
2022-12-25T00:22:53.117Z,1008.2
2022-12-25T00:23:56.040Z,1008.2
2022-12-25T00:24:59.165Z,1008.3
2022-12-25T00:26:03.233Z,1008.3
2022-12-25T00:27:06.324Z,1008.3
2022-12-25T00:28:09.848Z,1008.2
2022-12-25T00:29:13.214Z,1008.3
2022-12-25T00:30:16.577Z,1008.3
2022-12-25T00:31:19.603Z,1008.3
2022-12-25T00:32:22.298Z,1008.3
2022-12-25T00:33:25.988Z,1008.3
2022-12-25T00:34:43.759Z,1008.3
2022-12-25T00:35:46.878Z,1008.3
2022-12-25T00:36:50.008Z,1008.3
2022-12-25T00:37:52.940Z,1008.3
2022-12-25T00:38:55.662Z,1008.3
2022-12-25T00:39:58.164Z,1008.3
2022-12-25T00:41:01.254Z,1008.3
2022-12-25T00:42:05.041Z,1008.3
2022-12-25T00:43:08.196Z,1008.3
2022-12-25T00:44:11.333Z,1008.4
2022-12-25T00:45:16.249Z,1008.4
2022-12-25T00:46:19.730Z,1008.4
2022-12-25T00:47:22.897Z,1008.4
2022-12-25T00:48:25.688Z,1008.4
2022-12-25T00:49:28.712Z,1008.4
2022-12-25T00:50:32.458Z,1008.5
2022-12-25T00:51:35.449Z,1008.5
2022-12-25T00:52:38.798Z,1008.5
2022-12-25T00:53:41.876Z,1008.5
2022-12-25T00:54:44.911Z,1008.6
2022-12-25T00:55:48.002Z,1008.6
2022-12-25T00:56:50.979Z,1008.6
2022-12-25T00:57:54.847Z,1008.6
2022-12-25T00:58:58.185Z,1008.7
2022-12-25T01:00:01.333Z,1008.7
2022-12-25T01:01:04.620Z,1008.7
2022-12-25T01:02:07.612Z,1008.7
2022-12-25T01:03:11.888Z,1008.7
2022-12-25T01:04:15.730Z,1008.7
2022-12-25T01:05:18.272Z,1008.6
2022-12-25T01:06:21.984Z,1008.7
2022-12-25T01:07:24.280Z,1008.7
2022-12-25T01:08:28.039Z,1008.6
2022-12-25T01:09:31.229Z,1008.6
2022-12-25T01:10:34.532Z,1008.6
2022-12-25T01:11:37.649Z,1008.6
2022-12-25T01:12:41.179Z,1008.6
2022-12-25T01:13:45.358Z,1008.6
2022-12-25T01:14:48.188Z,1008.6
2022-12-25T01:15:51.693Z,1008.6
2022-12-25T01:16:55.303Z,1008.6
2022-12-25T01:18:07.700Z,1008.6
2022-12-25T01:19:15.682Z,1008.5
2022-12-25T01:20:18.561Z,1008.6
2022-12-25T01:21:22.023Z,1008.6
2022-12-25T01:22:25.374Z,1008.7
2022-12-25T01:23:28.093Z,1008.7
2022-12-25T01:24:31.187Z,1008.7
2022-12-25T01:25:34.076Z,1008.7
2022-12-25T01:26:37.715Z,1008.7
2022-12-25T01:27:40.420Z,1008.7
2022-12-25T01:28:43.299Z,1008.7
2022-12-25T01:29:47.112Z,1008.7
2022-12-25T01:30:50.513Z,1008.7
2022-12-25T01:31:53.767Z,1008.7
2022-12-25T01:32:57.960Z,1008.7
2022-12-25T01:34:01.430Z,1008.8
2022-12-25T01:35:04.620Z,1008.8
2022-12-25T01:36:07.353Z,1008.8
2022-12-25T01:37:09.785Z,1008.8
2022-12-25T01:38:12.492Z,1008.8
2022-12-25T01:39:16.174Z,1008.8
2022-12-25T01:40:19.347Z,1008.8
2022-12-25T01:41:22.342Z,1008.8
2022-12-25T01:42:25.363Z,1008.8
2022-12-25T01:43:28.133Z,1008.8
2022-12-25T01:44:31.265Z,1008.8
2022-12-25T01:45:35.471Z,1008.9
2022-12-25T01:46:38.968Z,1008.9
2022-12-25T01:47:42.387Z,1008.9
2022-12-25T01:48:45.121Z,1008.9
2022-12-25T01:49:48.442Z,1008.9
2022-12-25T01:50:51.879Z,1008.9
2022-12-25T01:51:54.959Z,1008.9
2022-12-25T01:52:57.752Z,1008.8
2022-12-25T01:54:00.499Z,1008.8
2022-12-25T01:55:03.822Z,1008.8
2022-12-25T01:56:06.257Z,1008.8
2022-12-25T01:57:09.690Z,1008.8
2022-12-25T01:58:12.493Z,1008.8
2022-12-25T01:59:15.885Z,1008.8
2022-12-25T02:00:18.921Z,1008.8
2022-12-25T02:01:23.163Z,1008.8
2022-12-25T02:02:27.773Z,1008.9
2022-12-25T02:03:32.098Z,1008.9
2022-12-25T02:04:35.908Z,1008.9
2022-12-25T02:05:38.994Z,1008.9
2022-12-25T02:06:41.505Z,1009
2022-12-25T02:07:45.152Z,1009
2022-12-25T02:08:47.669Z,1009
2022-12-25T02:09:50.954Z,1009.1
2022-12-25T02:10:54.316Z,1009.1
2022-12-25T02:11:57.134Z,1009.1
2022-12-25T02:13:01.226Z,1009.1
2022-12-25T02:14:04.636Z,1009.1
2022-12-25T02:15:07.922Z,1009.1
2022-12-25T02:16:11.289Z,1009.1
2022-12-25T02:17:15.578Z,1009.1
2022-12-25T02:18:19.233Z,1009.1
2022-12-25T02:19:22.443Z,1009.1
2022-12-25T02:20:26.071Z,1009.1
2022-12-25T02:21:29.184Z,1009.1
2022-12-25T02:22:32.602Z,1009.1
2022-12-25T02:23:35.634Z,1009.1
2022-12-25T02:24:38.436Z,1009
2022-12-25T02:25:41.547Z,1009
2022-12-25T02:26:44.579Z,1009
2022-12-25T02:27:47.603Z,1009
2022-12-25T02:28:50.690Z,1009
2022-12-25T02:29:53.861Z,1009.1
2022-12-25T02:30:57.001Z,1009.1
2022-12-25T02:32:01.040Z,1009.1
2022-12-25T02:33:04.959Z,1009.1
2022-12-25T02:34:08.349Z,1009.1
2022-12-25T02:35:13.069Z,1009.1
2022-12-25T02:36:16.168Z,1009.1
2022-12-25T02:37:18.983Z,1009.1
2022-12-25T02:38:22.307Z,1009.1
2022-12-25T02:39:25.231Z,1009.1
2022-12-25T02:40:28.209Z,1009.1
2022-12-25T02:41:30.919Z,1009.2
2022-12-25T02:42:33.156Z,1009.2
2022-12-25T02:43:35.692Z,1009.3
2022-12-25T02:44:38.790Z,1009.3
2022-12-25T02:45:41.461Z,1009.3
2022-12-25T02:46:43.749Z,1009.4
2022-12-25T02:47:46.891Z,1009.4
2022-12-25T02:48:50.759Z,1009.4
2022-12-25T02:49:53.269Z,1009.4
2022-12-25T02:50:56.113Z,1009.4
2022-12-25T02:51:58.581Z,1009.5
2022-12-25T02:53:02.031Z,1009.4
2022-12-25T02:54:05.138Z,1009.5
2022-12-25T02:55:08.871Z,1009.5
2022-12-25T02:56:12.259Z,1009.5
2022-12-25T02:57:14.977Z,1009.4
2022-12-25T02:58:18.447Z,1009.5
2022-12-25T02:59:21.172Z,1009.5
2022-12-25T03:00:24.266Z,1009.5
2022-12-25T03:01:27.554Z,1009.5
2022-12-25T03:02:31.381Z,1009.5
2022-12-25T03:03:34.951Z,1009.4
2022-12-25T03:04:39.259Z,1009.4
2022-12-25T03:05:42.700Z,1009.5
2022-12-25T03:06:45.880Z,1009.4
2022-12-25T03:07:48.948Z,1009.6
2022-12-25T03:08:51.970Z,1009.5
2022-12-25T03:09:55.706Z,1009.5
2022-12-25T03:10:58.909Z,1009.5
2022-12-25T03:12:02.567Z,1009.5
2022-12-25T03:13:05.939Z,1009.5
2022-12-25T03:14:09.053Z,1009.5
2022-12-25T03:15:12.417Z,1009.5
2022-12-25T03:16:15.612Z,1009.5
2022-12-25T03:17:19.014Z,1009.5
2022-12-25T03:18:22.219Z,1009.4
2022-12-25T03:19:25.605Z,1009.4
2022-12-25T03:20:28.994Z,1009.4
2022-12-25T03:21:32.382Z,1009.4
2022-12-25T03:22:35.552Z,1009.5
2022-12-25T03:23:38.708Z,1009.5
2022-12-25T03:24:42.497Z,1009.5
2022-12-25T03:25:45.199Z,1009.5
2022-12-25T03:26:48.217Z,1009.6
2022-12-25T03:27:50.997Z,1009.6
2022-12-25T03:28:54.679Z,1009.6
2022-12-25T03:29:57.405Z,1009.6
2022-12-25T03:31:00.527Z,1009.6
2022-12-25T03:32:04.099Z,1009.6
2022-12-25T03:33:44.246Z,1009.6
2022-12-25T03:34:48.648Z,1009.7
2022-12-25T03:35:51.887Z,1009.7
2022-12-25T03:36:55.225Z,1009.6
2022-12-25T03:37:58.718Z,1009.6
2022-12-25T03:39:01.673Z,1009.6
2022-12-25T03:40:04.261Z,1009.7
2022-12-25T03:41:07.064Z,1009.7
2022-12-25T03:42:10.356Z,1009.7
2022-12-25T03:43:12.843Z,1009.7
2022-12-25T03:44:16.125Z,1009.7
2022-12-25T03:45:19.272Z,1009.8
2022-12-25T03:46:22.549Z,1009.8
2022-12-25T03:47:26.318Z,1009.8
2022-12-25T03:48:29.313Z,1009.8
2022-12-25T03:49:32.939Z,1009.7
2022-12-25T03:50:36.585Z,1009.7
2022-12-25T03:51:39.822Z,1009.7
2022-12-25T03:52:42.993Z,1009.7
2022-12-25T03:53:46.429Z,1009.7
2022-12-25T03:54:49.441Z,1009.7
2022-12-25T03:55:52.636Z,1009.7
2022-12-25T03:56:56.093Z,1009.7
2022-12-25T03:57:59.199Z,1009.7
2022-12-25T03:59:02.305Z,1009.7
2022-12-25T04:00:05.322Z,1009.7
2022-12-25T04:01:08.841Z,1009.6
2022-12-25T04:02:11.816Z,1009.6
2022-12-25T04:03:15.733Z,1009.7
2022-12-25T04:04:18.790Z,1009.7
2022-12-25T04:05:22.152Z,1009.6
2022-12-25T04:06:24.422Z,1009.7
2022-12-25T04:07:28.303Z,1009.7
2022-12-25T04:08:31.209Z,1009.7
2022-12-25T04:09:34.987Z,1009.7
2022-12-25T04:10:37.795Z,1009.6
2022-12-25T04:11:40.962Z,1009.6
2022-12-25T04:12:44.331Z,1009.6
2022-12-25T04:13:47.375Z,1009.5
2022-12-25T04:14:51.018Z,1009.6
2022-12-25T04:15:53.675Z,1009.5
2022-12-25T04:16:57.033Z,1009.5
2022-12-25T04:18:00.111Z,1009.5
2022-12-25T04:19:03.871Z,1009.4
2022-12-25T04:20:07.167Z,1009.4
2022-12-25T04:21:10.247Z,1009.4
2022-12-25T04:22:13.981Z,1009.4
2022-12-25T04:23:17.376Z,1009.4
2022-12-25T04:24:21.032Z,1009.4
2022-12-25T04:25:24.441Z,1009.5
2022-12-25T04:26:27.199Z,1009.6
2022-12-25T04:27:29.941Z,1009.5
2022-12-25T04:28:32.669Z,1009.5
2022-12-25T04:29:36.415Z,1009.5
2022-12-25T04:30:39.316Z,1009.5
2022-12-25T04:31:42.914Z,1009.5
2022-12-25T04:32:45.989Z,1009.5
2022-12-25T04:33:49.101Z,1009.5
2022-12-25T04:34:52.120Z,1009.4
2022-12-25T04:35:55.268Z,1009.5
2022-12-25T04:36:58.641Z,1009.5
2022-12-25T04:38:02.185Z,1009.5
2022-12-25T04:39:05.971Z,1009.4
2022-12-25T04:40:09.064Z,1009.4
2022-12-25T04:41:12.556Z,1009.4
2022-12-25T04:42:15.864Z,1009.4
2022-12-25T04:43:18.917Z,1009.4
2022-12-25T04:44:22.329Z,1009.3
2022-12-25T04:45:24.858Z,1009.4
2022-12-25T04:46:27.983Z,1009.4
2022-12-25T04:47:31.117Z,1009.3
2022-12-25T04:48:33.629Z,1009.4
2022-12-25T04:49:36.984Z,1009.3
2022-12-25T04:50:40.076Z,1009.3
2022-12-25T04:51:43.096Z,1009.3
2022-12-25T04:52:46.442Z,1009.2
2022-12-25T04:53:49.268Z,1009.2
2022-12-25T04:54:53.044Z,1009.2
2022-12-25T04:55:55.857Z,1009.2
2022-12-25T04:56:59.243Z,1009.2
2022-12-25T04:58:02.047Z,1009.2
2022-12-25T04:59:05.452Z,1009.2
2022-12-25T05:00:08.885Z,1009.2
2022-12-25T05:01:12.015Z,1009.2
2022-12-25T05:02:15.941Z,1009.2
2022-12-25T05:03:19.480Z,1009.2
2022-12-25T05:04:23.247Z,1009.2
2022-12-25T05:05:26.224Z,1009.2
2022-12-25T05:06:29.939Z,1009.2
2022-12-25T05:07:32.766Z,1009.3
2022-12-25T05:08:36.217Z,1009.3
2022-12-25T05:09:39.639Z,1009.3
2022-12-25T05:10:43.417Z,1009.3
2022-12-25T05:11:46.295Z,1009.3
2022-12-25T05:12:49.646Z,1009.3
2022-12-25T05:13:52.486Z,1009.2
2022-12-25T05:14:55.872Z,1009.2
2022-12-25T05:15:59.539Z,1009.2
2022-12-25T05:17:02.926Z,1009.1
2022-12-25T05:18:05.791Z,1009.1
2022-12-25T05:19:08.916Z,1009.1
2022-12-25T05:20:12.569Z,1009.1
2022-12-25T05:21:15.923Z,1009.1
2022-12-25T05:22:19.645Z,1009.1
2022-12-25T05:23:22.160Z,1009.1
2022-12-25T05:24:25.528Z,1009.2
2022-12-25T05:25:28.520Z,1009.2
2022-12-25T05:26:32.658Z,1009.2
2022-12-25T05:27:35.736Z,1009.2
2022-12-25T05:28:39.635Z,1009.2
2022-12-25T05:29:42.669Z,1009.2
2022-12-25T05:30:45.810Z,1009.2
2022-12-25T05:31:49.009Z,1009.2
2022-12-25T05:32:52.435Z,1009.2
2022-12-25T05:33:56.605Z,1009.3
2022-12-25T05:34:59.997Z,1009.2
2022-12-25T05:36:02.429Z,1009.1
2022-12-25T05:37:05.550Z,1009.1
2022-12-25T05:38:08.327Z,1009.1
2022-12-25T05:39:11.427Z,1009.1
2022-12-25T05:40:13.598Z,1009.1
2022-12-25T05:41:16.611Z,1009
2022-12-25T05:42:20.733Z,1009
2022-12-25T05:43:23.843Z,1009
2022-12-25T05:44:27.287Z,1009
2022-12-25T05:45:30.124Z,1009
2022-12-25T05:46:33.638Z,1008.9
2022-12-25T05:47:37.745Z,1009
2022-12-25T05:48:40.843Z,1009
2022-12-25T05:49:44.089Z,1008.9
2022-12-25T05:50:47.237Z,1008.9
2022-12-25T05:51:49.993Z,1009
2022-12-25T05:52:53.427Z,1009
2022-12-25T05:53:56.845Z,1009
2022-12-25T05:55:00.214Z,1008.9
2022-12-25T05:56:03.233Z,1008.9
2022-12-25T05:57:06.331Z,1008.9
2022-12-25T05:58:09.920Z,1008.9
2022-12-25T05:59:12.688Z,1008.9
2022-12-25T06:00:15.893Z,1008.9
2022-12-25T06:01:19.800Z,1008.9
2022-12-25T06:02:23.096Z,1008.9
2022-12-25T06:03:27.745Z,1008.9
2022-12-25T06:04:32.429Z,1008.9
2022-12-25T06:05:36.124Z,1008.9
2022-12-25T06:06:38.853Z,1008.9
2022-12-25T06:07:41.662Z,1008.8
2022-12-25T06:08:44.506Z,1008.8
2022-12-25T06:09:47.591Z,1008.9
2022-12-25T06:10:50.575Z,1008.8
2022-12-25T06:11:53.943Z,1008.9
2022-12-25T06:12:56.101Z,1008.9
2022-12-25T06:14:00.167Z,1008.9
2022-12-25T06:15:02.644Z,1008.9
2022-12-25T06:16:06.353Z,1008.8
2022-12-25T06:17:10.139Z,1008.8
2022-12-25T06:18:13.496Z,1008.7
2022-12-25T06:19:16.923Z,1008.8
2022-12-25T06:20:19.715Z,1008.7
2022-12-25T06:21:22.751Z,1008.7
2022-12-25T06:22:25.700Z,1008.7
2022-12-25T06:23:29.177Z,1008.7
2022-12-25T06:24:32.266Z,1008.7
2022-12-25T06:25:34.441Z,1008.7
2022-12-25T06:26:38.058Z,1008.7
2022-12-25T06:27:41.035Z,1008.8
2022-12-25T06:28:44.451Z,1008.8
2022-12-25T06:29:48.660Z,1008.8
2022-12-25T06:30:52.292Z,1008.8
2022-12-25T06:31:56.236Z,1008.8
2022-12-25T06:32:59.869Z,1008.8
2022-12-25T06:34:03.296Z,1008.8
2022-12-25T06:35:07.036Z,1008.8
2022-12-25T06:36:10.626Z,1008.8
2022-12-25T06:37:14.311Z,1008.8
2022-12-25T06:38:17.027Z,1008.8
2022-12-25T06:39:19.832Z,1008.8
2022-12-25T06:40:23.546Z,1008.8
2022-12-25T06:41:26.809Z,1008.8
2022-12-25T06:42:30.495Z,1008.8
2022-12-25T06:43:34.251Z,1008.8
2022-12-25T06:44:36.670Z,1008.9
2022-12-25T06:45:40.549Z,1008.9
2022-12-25T06:46:44.107Z,1008.9
2022-12-25T06:47:47.270Z,1008.9
2022-12-25T06:48:50.612Z,1008.9
2022-12-25T06:49:53.973Z,1008.9
2022-12-25T06:50:56.582Z,1008.9
2022-12-25T06:52:01.079Z,1008.9
2022-12-25T06:53:05.157Z,1008.9
2022-12-25T06:54:07.953Z,1009
2022-12-25T06:55:10.392Z,1008.9
2022-12-25T06:56:12.857Z,1008.9
2022-12-25T06:57:15.576Z,1008.9
2022-12-25T06:58:18.362Z,1009
2022-12-25T06:59:22.029Z,1008.9
2022-12-25T07:00:25.386Z,1009
2022-12-25T07:01:29.472Z,1009
2022-12-25T07:02:33.880Z,1009
2022-12-25T07:03:37.774Z,1009
2022-12-25T07:04:40.880Z,1009
2022-12-25T07:05:44.609Z,1009
2022-12-25T07:06:47.707Z,1008.9
2022-12-25T07:07:51.368Z,1008.9
2022-12-25T07:08:53.834Z,1008.9
2022-12-25T07:09:57.350Z,1008.9
2022-12-25T07:11:00.508Z,1009
2022-12-25T07:12:03.327Z,1009
2022-12-25T07:13:06.208Z,1009
2022-12-25T07:14:09.198Z,1009
2022-12-25T07:15:12.024Z,1009
2022-12-25T07:16:14.910Z,1009
2022-12-25T07:17:19.217Z,1009
2022-12-25T07:18:23.006Z,1009
2022-12-25T07:19:25.980Z,1009.1
2022-12-25T07:20:29.827Z,1009.1
2022-12-25T07:21:32.967Z,1009
2022-12-25T07:22:36.992Z,1009
2022-12-25T07:23:39.801Z,1009.1
2022-12-25T07:24:42.834Z,1009.1
2022-12-25T07:25:45.699Z,1009.1
2022-12-25T07:26:48.746Z,1009.1
2022-12-25T07:27:51.364Z,1009.2
2022-12-25T07:28:54.421Z,1009.2
2022-12-25T07:29:57.163Z,1009.2
2022-12-25T07:30:59.978Z,1009.2
2022-12-25T07:32:02.983Z,1009.2
2022-12-25T07:33:07.027Z,1009.2
2022-12-25T07:34:10.196Z,1009.2
2022-12-25T07:35:13.440Z,1009.2
2022-12-25T07:36:16.517Z,1009.2
2022-12-25T07:37:19.863Z,1009.2
2022-12-25T07:38:23.157Z,1009.2
2022-12-25T07:39:26.610Z,1009.3
2022-12-25T07:40:29.691Z,1009.2
2022-12-25T07:41:33.311Z,1009.2
2022-12-25T07:42:35.791Z,1009.1
2022-12-25T07:43:38.599Z,1009.1
2022-12-25T07:44:41.708Z,1009.1
2022-12-25T07:45:44.217Z,1009.1
2022-12-25T07:46:48.097Z,1009.2
2022-12-25T07:47:56.297Z,1009.2
2022-12-25T07:49:18.886Z,1009.3
2022-12-25T07:50:22.127Z,1009.3
2022-12-25T07:51:25.450Z,1009.4
2022-12-25T07:52:27.890Z,1009.3
2022-12-25T07:53:30.975Z,1009.4
2022-12-25T07:54:34.148Z,1009.4
2022-12-25T07:55:36.938Z,1009.3
2022-12-25T07:56:40.315Z,1009.4
2022-12-25T07:57:42.775Z,1009.4
2022-12-25T07:58:45.544Z,1009.3
2022-12-25T07:59:49.555Z,1009.3
2022-12-25T08:00:52.725Z,1009.4
2022-12-25T08:01:57.309Z,1009.3
2022-12-25T08:03:01.849Z,1009.3
2022-12-25T08:04:06.547Z,1009.3
2022-12-25T08:05:10.453Z,1009.3
2022-12-25T08:06:13.784Z,1009.3
2022-12-25T08:07:17.178Z,1009.3
2022-12-25T08:08:19.776Z,1009.3
2022-12-25T08:09:22.929Z,1009.3
2022-12-25T08:10:26.819Z,1009.3
2022-12-25T08:11:29.068Z,1009.3
2022-12-25T08:12:32.191Z,1009.3
2022-12-25T08:13:35.341Z,1009.3
2022-12-25T08:14:38.712Z,1009.3
2022-12-25T08:15:42.172Z,1009.3
2022-12-25T08:16:45.265Z,1009.4
2022-12-25T08:17:49.016Z,1009.3
2022-12-25T08:18:52.379Z,1009.3
2022-12-25T08:19:55.469Z,1009.3
2022-12-25T08:20:58.760Z,1009.3
2022-12-25T08:22:01.959Z,1009.2
2022-12-25T08:23:05.071Z,1009.2
2022-12-25T08:24:07.789Z,1009.2
2022-12-25T08:25:11.180Z,1009.3
2022-12-25T08:26:14.362Z,1009.3
2022-12-25T08:27:17.382Z,1009.2
2022-12-25T08:28:21.128Z,1009.2
2022-12-25T08:29:24.838Z,1009.2
2022-12-25T08:30:28.214Z,1009.2
2022-12-25T08:31:32.521Z,1009.2
2022-12-25T08:32:39.683Z,1009.1
2022-12-25T08:33:43.686Z,1009.1
2022-12-25T08:34:46.964Z,1009
2022-12-25T08:35:50.750Z,1009
2022-12-25T08:36:54.538Z,1009
2022-12-25T08:37:58.092Z,1009
2022-12-25T08:39:03.958Z,1009
2022-12-25T08:40:07.634Z,1009
2022-12-25T08:41:10.715Z,1008.9
2022-12-25T08:42:14.094Z,1008.9
2022-12-25T08:43:17.459Z,1008.9
2022-12-25T08:44:20.441Z,1008.8
2022-12-25T08:45:23.245Z,1008.8
2022-12-25T08:46:37.589Z,1008.8
2022-12-25T08:47:40.725Z,1008.8
2022-12-25T08:48:44.162Z,1008.8
2022-12-25T08:49:47.880Z,1008.8
2022-12-25T08:50:51.198Z,1008.8
2022-12-25T08:51:54.968Z,1008.8
2022-12-25T08:52:58.853Z,1008.9
2022-12-25T08:54:02.984Z,1008.8
2022-12-25T08:55:06.360Z,1008.8
2022-12-25T08:56:08.795Z,1008.7
2022-12-25T08:57:11.822Z,1008.8
2022-12-25T08:58:14.953Z,1008.8
2022-12-25T08:59:18.163Z,1008.7
2022-12-25T09:00:21.522Z,1008.8
2022-12-25T09:01:25.776Z,1008.7
2022-12-25T09:02:30.371Z,1008.7
2022-12-25T09:03:34.147Z,1008.7
2022-12-25T09:04:38.040Z,1008.7
2022-12-25T09:05:41.542Z,1008.7
2022-12-25T09:06:45.263Z,1008.6
2022-12-25T09:07:48.352Z,1008.7
2022-12-25T09:08:52.124Z,1008.6
2022-12-25T09:09:55.347Z,1008.6
2022-12-25T09:10:58.730Z,1008.6
2022-12-25T09:12:00.892Z,1008.7
2022-12-25T09:13:04.304Z,1008.7
2022-12-25T09:14:07.074Z,1008.7
2022-12-25T09:15:10.175Z,1008.7
2022-12-25T09:16:13.653Z,1008.7
2022-12-25T09:17:17.919Z,1008.8
2022-12-25T09:18:21.320Z,1008.7
2022-12-25T09:19:23.780Z,1008.7
2022-12-25T09:20:26.588Z,1008.8
2022-12-25T09:21:29.669Z,1008.8
2022-12-25T09:22:32.932Z,1008.8
2022-12-25T09:23:36.109Z,1008.8
2022-12-25T09:24:39.928Z,1008.8
2022-12-25T09:25:43.286Z,1008.8
2022-12-25T09:26:47.030Z,1008.9
2022-12-25T09:27:50.295Z,1008.8
2022-12-25T09:28:53.704Z,1008.8
2022-12-25T09:29:56.542Z,1008.8
2022-12-25T09:30:59.539Z,1008.8
2022-12-25T09:32:02.693Z,1008.9
2022-12-25T09:33:05.784Z,1008.9
2022-12-25T09:34:10.461Z,1008.9
2022-12-25T09:35:21.771Z,1008.9
2022-12-25T09:36:25.223Z,1008.9
2022-12-25T09:37:28.607Z,1008.9
2022-12-25T09:38:31.326Z,1008.9
2022-12-25T09:39:34.401Z,1008.9
2022-12-25T09:40:49.735Z,1008.9
2022-12-25T09:41:53.781Z,1008.9
2022-12-25T09:42:56.590Z,1008.9
2022-12-25T09:44:00.498Z,1008.9
2022-12-25T09:45:03.692Z,1008.9
2022-12-25T09:46:06.902Z,1009
2022-12-25T09:47:10.309Z,1008.9
2022-12-25T09:48:13.126Z,1008.9
2022-12-25T09:49:16.186Z,1008.9
2022-12-25T09:50:19.846Z,1008.9
2022-12-25T09:51:22.811Z,1008.9
2022-12-25T09:52:25.238Z,1008.9
2022-12-25T09:53:28.377Z,1008.9
2022-12-25T09:54:30.611Z,1008.9
2022-12-25T09:55:33.946Z,1008.9
2022-12-25T09:56:38.141Z,1009
2022-12-25T09:57:41.110Z,1009
2022-12-25T09:58:44.148Z,1008.9
2022-12-25T09:59:46.316Z,1008.9
2022-12-25T10:00:48.591Z,1009
2022-12-25T10:01:52.203Z,1008.9
2022-12-25T10:02:56.245Z,1008.9
2022-12-25T10:04:01.456Z,1008.9
2022-12-25T10:05:04.933Z,1008.9
2022-12-25T10:06:07.970Z,1008.8
2022-12-25T10:07:11.713Z,1008.8
2022-12-25T10:08:15.678Z,1008.8
2022-12-25T10:09:19.344Z,1008.6
2022-12-25T10:10:22.371Z,1008.6
2022-12-25T10:11:25.409Z,1008.6
2022-12-25T10:12:29.562Z,1008.6
2022-12-25T10:13:32.650Z,1008.6
2022-12-25T10:14:35.586Z,1008.6
2022-12-25T10:15:46.170Z,1008.6
2022-12-25T10:16:49.806Z,1008.6
2022-12-25T10:17:52.854Z,1008.6
2022-12-25T10:18:55.857Z,1008.6
2022-12-25T10:19:58.709Z,1008.6
2022-12-25T10:21:01.827Z,1008.6
2022-12-25T10:22:15.119Z,1008.7
2022-12-25T10:23:18.185Z,1008.7
2022-12-25T10:24:21.587Z,1008.7
2022-12-25T10:25:24.117Z,1008.7
2022-12-25T10:26:27.319Z,1008.8
2022-12-25T10:27:30.734Z,1008.8
2022-12-25T10:28:34.269Z,1008.8
2022-12-25T10:29:37.392Z,1008.9
2022-12-25T10:30:40.229Z,1008.9
2022-12-25T10:31:43.338Z,1008.9
2022-12-25T10:32:46.320Z,1008.9
2022-12-25T10:33:50.371Z,1008.9
2022-12-25T10:34:53.724Z,1008.9
2022-12-25T10:35:57.306Z,1008.9
2022-12-25T10:37:00.322Z,1008.9
2022-12-25T10:38:03.078Z,1008.8
2022-12-25T10:39:06.079Z,1008.8
2022-12-25T10:40:09.803Z,1008.8
2022-12-25T10:41:13.175Z,1008.7
2022-12-25T10:42:15.634Z,1008.7
2022-12-25T10:43:18.969Z,1008.6
2022-12-25T10:44:22.471Z,1008.6
2022-12-25T10:45:26.273Z,1008.6
2022-12-25T10:46:29.336Z,1008.5
2022-12-25T10:47:32.767Z,1008.5
2022-12-25T10:48:36.146Z,1008.5
2022-12-25T10:49:39.897Z,1008.5
2022-12-25T10:50:43.051Z,1008.5
2022-12-25T10:51:45.921Z,1008.5
2022-12-25T10:52:49.374Z,1008.5
2022-12-25T10:53:52.217Z,1008.4
2022-12-25T10:54:54.941Z,1008.4
2022-12-25T10:55:56.600Z,1008.3
2022-12-25T10:56:59.716Z,1008.3
2022-12-25T10:58:04.190Z,1008.3
2022-12-25T10:59:07.742Z,1008.4
2022-12-25T11:00:11.849Z,1008.4
2022-12-25T11:01:14.945Z,1008.3
2022-12-25T11:02:19.003Z,1008.2
2022-12-25T11:03:23.648Z,1008.1
2022-12-25T11:04:27.159Z,1008
2022-12-25T11:05:30.046Z,1007.9
2022-12-25T11:06:33.180Z,1007.8
2022-12-25T11:07:36.554Z,1007.8
2022-12-25T11:08:39.614Z,1007.8
2022-12-25T11:09:42.584Z,1007.8
2022-12-25T11:10:45.911Z,1007.8
2022-12-25T11:11:48.642Z,1007.8
2022-12-25T11:12:51.716Z,1007.8
2022-12-25T11:13:55.176Z,1007.8
2022-12-25T11:14:58.300Z,1007.8
2022-12-25T11:16:01.719Z,1007.8
2022-12-25T11:17:05.536Z,1007.8
2022-12-25T11:18:08.245Z,1007.9
2022-12-25T11:19:11.049Z,1007.9
2022-12-25T11:20:14.902Z,1007.8
2022-12-25T11:21:18.315Z,1007.8
2022-12-25T11:22:21.331Z,1007.8
2022-12-25T11:23:24.381Z,1007.8
2022-12-25T11:24:28.007Z,1007.9
2022-12-25T11:25:31.081Z,1007.9
2022-12-25T11:26:34.352Z,1007.9
2022-12-25T11:27:37.426Z,1007.8
2022-12-25T11:28:40.439Z,1007.8
2022-12-25T11:29:43.052Z,1007.7
2022-12-25T11:30:46.862Z,1007.6
2022-12-25T11:31:50.878Z,1007.6
2022-12-25T11:32:54.761Z,1007.5
2022-12-25T11:33:57.713Z,1007.5
2022-12-25T11:35:00.809Z,1007.5
2022-12-25T11:36:03.572Z,1007.4
2022-12-25T11:37:06.313Z,1007.4
2022-12-25T11:38:08.484Z,1007.4
2022-12-25T11:39:11.582Z,1007.4
2022-12-25T11:40:14.832Z,1007.3
2022-12-25T11:41:18.885Z,1007.2
2022-12-25T11:42:21.061Z,1007.2
2022-12-25T11:43:23.921Z,1007.2
2022-12-25T11:44:27.290Z,1007.2
2022-12-25T11:45:30.354Z,1007.3
2022-12-25T11:46:34.219Z,1007.3
2022-12-25T11:47:38.262Z,1007.4
2022-12-25T11:48:41.665Z,1007.4
2022-12-25T11:49:51.019Z,1007.5
2022-12-25T11:51:03.167Z,1007.5
2022-12-25T11:52:06.543Z,1007.5
2022-12-25T11:53:09.829Z,1007.5
2022-12-25T11:54:12.560Z,1007.4
2022-12-25T11:55:15.011Z,1007.5
2022-12-25T11:56:17.823Z,1007.5
2022-12-25T11:57:21.184Z,1007.5
2022-12-25T11:58:24.179Z,1007.5
2022-12-25T11:59:26.897Z,1007.5
2022-12-25T12:00:29.959Z,1007.6
2022-12-25T12:01:32.607Z,1007.6
2022-12-25T12:02:36.844Z,1007.5
2022-12-25T12:03:42.437Z,1007.5
2022-12-25T12:04:45.983Z,1007.5
2022-12-25T12:05:49.338Z,1007.6
2022-12-25T12:06:51.839Z,1007.6
2022-12-25T12:07:55.013Z,1007.6
2022-12-25T12:08:58.436Z,1007.6
2022-12-25T12:10:01.913Z,1007.5
2022-12-25T12:11:04.811Z,1007.5
2022-12-25T12:12:08.502Z,1007.5
2022-12-25T12:13:11.839Z,1007.5
2022-12-25T12:14:14.637Z,1007.4
2022-12-25T12:15:17.704Z,1007.4
2022-12-25T12:16:21.095Z,1007.4
2022-12-25T12:17:25.301Z,1007.4
2022-12-25T12:18:29.016Z,1007.4
2022-12-25T12:19:32.766Z,1007.4
2022-12-25T12:20:35.921Z,1007.4
2022-12-25T12:21:38.652Z,1007.3
2022-12-25T12:22:41.222Z,1007.3
2022-12-25T12:23:43.180Z,1007.3
2022-12-25T12:24:46.812Z,1007.3
2022-12-25T12:25:49.609Z,1007.3
2022-12-25T12:26:52.325Z,1007.3
2022-12-25T12:28:05.505Z,1007.2
2022-12-25T12:29:08.530Z,1007.2
2022-12-25T12:30:11.514Z,1007.3
2022-12-25T12:31:15.502Z,1007.3
2022-12-25T12:32:19.052Z,1007.4
2022-12-25T12:33:21.833Z,1007.4
2022-12-25T12:34:25.570Z,1007.4
2022-12-25T12:35:29.041Z,1007.4
2022-12-25T12:36:39.318Z,1007.4
2022-12-25T12:37:42.666Z,1007.4
2022-12-25T12:38:45.806Z,1007.4
2022-12-25T12:39:48.899Z,1007.4
2022-12-25T12:40:52.162Z,1007.4
2022-12-25T12:41:55.514Z,1007.4
2022-12-25T12:42:58.576Z,1007.4
2022-12-25T12:44:02.742Z,1007.4
2022-12-25T12:45:06.156Z,1007.4
2022-12-25T12:46:09.121Z,1007.4
2022-12-25T12:47:12.533Z,1007.4
2022-12-25T12:48:15.530Z,1007.4
2022-12-25T12:49:19.611Z,1007.4
2022-12-25T12:50:23.310Z,1007.3
2022-12-25T12:51:27.058Z,1007.3
2022-12-25T12:52:29.874Z,1007.3
2022-12-25T12:53:32.995Z,1007.4
2022-12-25T12:54:35.528Z,1007.4
2022-12-25T12:55:38.114Z,1007.4
2022-12-25T12:56:41.486Z,1007.4
2022-12-25T12:57:44.018Z,1007.3
2022-12-25T12:58:47.353Z,1007.3
2022-12-25T12:59:50.353Z,1007.2
2022-12-25T13:00:53.871Z,1007.2
2022-12-25T13:01:57.457Z,1007.2
2022-12-25T13:03:01.098Z,1007.1
2022-12-25T13:04:05.291Z,1007.2
2022-12-25T13:05:08.149Z,1007.1
2022-12-25T13:06:11.846Z,1007.1
2022-12-25T13:07:15.337Z,1007.1
2022-12-25T13:08:18.477Z,1007.1
2022-12-25T13:09:21.580Z,1007.1
2022-12-25T13:10:24.410Z,1007.1
2022-12-25T13:11:27.708Z,1007
2022-12-25T13:12:30.449Z,1007
2022-12-25T13:13:32.970Z,1007
2022-12-25T13:14:35.816Z,1007
2022-12-25T13:15:38.991Z,1007
2022-12-25T13:16:42.818Z,1007